sensor_id;sensor_type;location;lat;lon;timestamp;pressure;altitude;pressure_sealevel;temperature;humidity
50268;BME280;36153;50.960;6.220;2022-12-24T00:01:50;99768.81;;;13.75;61.32
50268;BME280;36153;50.960;6.220;2022-12-24T00:04:50;99793.50;;;13.54;63.57
50268;BME280;36153;50.960;6.220;2022-12-24T00:07:51;99775.44;;;13.29;64.82
50268;BME280;36153;50.960;6.220;2022-12-24T00:10:52;99778.00;;;13.37;65.17
50268;BME280;36153;50.960;6.220;2022-12-24T00:13:52;99779.75;;;13.33;65.65
50268;BME280;36153;50.960;6.220;2022-12-24T00:16:52;99769.38;;;13.27;65.25
50268;BME280;36153;50.960;6.220;2022-12-24T00:19:53;99765.03;;;13.24;64.90
50268;BME280;36153;50.960;6.220;2022-12-24T00:22:53;99769.28;;;13.33;64.54
50268;BME280;36153;50.960;6.220;2022-12-24T00:25:54;99771.00;;;13.40;64.23
50268;BME280;36153;50.960;6.220;2022-12-24T00:28:54;99762.13;;;13.54;63.96
50268;BME280;36153;50.960;6.220;2022-12-24T00:31:55;99773.38;;;13.60;63.48
50268;BME280;36153;50.960;6.220;2022-12-24T00:34:55;99783.84;;;13.59;63.71
50268;BME280;36153;50.960;6.220;2022-12-24T00:37:56;99791.69;;;13.59;63.50
50268;BME280;36153;50.960;6.220;2022-12-24T00:41:04;99794.19;;;13.66;63.42
50268;BME280;36153;50.960;6.220;2022-12-24T00:44:05;99785.53;;;13.64;63.07
50268;BME280;36153;50.960;6.220;2022-12-24T00:47:09;99783.56;;;13.80;62.86
50268;BME280;36153;50.960;6.220;2022-12-24T00:50:09;99782.78;;;13.75;62.71
50268;BME280;36153;50.960;6.220;2022-12-24T00:53:10;99814.38;;;13.57;62.89
50268;BME280;36153;50.960;6.220;2022-12-24T00:56:10;99804.56;;;13.74;62.58
50268;BME280;36153;50.960;6.220;2022-12-24T00:59:11;99807.34;;;13.62;62.89
50268;BME280;36153;50.960;6.220;2022-12-24T01:02:11;99816.00;;;13.67;62.86
50268;BME280;36153;50.960;6.220;2022-12-24T01:05:11;99818.66;;;13.62;62.54
50268;BME280;36153;50.960;6.220;2022-12-24T01:08:12;99828.34;;;13.56;62.47
50268;BME280;36153;50.960;6.220;2022-12-24T01:11:12;99844.97;;;13.50;62.66
50268;BME280;36153;50.960;6.220;2022-12-24T01:14:13;99833.59;;;13.54;62.15
50268;BME280;36153;50.960;6.220;2022-12-24T01:17:13;99831.78;;;13.58;62.10
50268;BME280;36153;50.960;6.220;2022-12-24T01:20:15;99823.13;;;13.56;61.73
50268;BME280;36153;50.960;6.220;2022-12-24T01:23:16;99844.94;;;13.53;61.99
50268;BME280;36153;50.960;6.220;2022-12-24T01:26:16;99855.41;;;13.48;62.70
50268;BME280;36153;50.960;6.220;2022-12-24T01:29:17;99849.34;;;13.46;62.84
50268;BME280;36153;50.960;6.220;2022-12-24T01:32:17;99851.13;;;13.44;62.90
50268;BME280;36153;50.960;6.220;2022-12-24T01:35:17;99852.97;;;13.31;63.03
50268;BME280;36153;50.960;6.220;2022-12-24T01:38:18;99849.31;;;13.49;62.51
50268;BME280;36153;50.960;6.220;2022-12-24T01:41:21;99860.78;;;13.33;62.98
50268;BME280;36153;50.960;6.220;2022-12-24T01:44:43;99861.56;;;13.47;62.55
50268;BME280;36153;50.960;6.220;2022-12-24T01:47:43;99870.22;;;13.51;62.31
50268;BME280;36153;50.960;6.220;2022-12-24T01:50:44;99868.66;;;13.36;62.66
50268;BME280;36153;50.960;6.220;2022-12-24T01:53:48;99865.16;;;13.31;63.29
50268;BME280;36153;50.960;6.220;2022-12-24T01:56:54;99868.56;;;13.42;62.47
50268;BME280;36153;50.960;6.220;2022-12-24T02:00:00;99853.94;;;13.23;63.57
50268;BME280;36153;50.960;6.220;2022-12-24T02:03:03;99862.56;;;13.31;63.71
50268;BME280;36153;50.960;6.220;2022-12-24T02:06:04;99853.81;;;13.38;63.25
50268;BME280;36153;50.960;6.220;2022-12-24T02:09:04;99869.47;;;13.40;63.49
50268;BME280;36153;50.960;6.220;2022-12-24T02:12:06;99876.47;;;13.38;63.55
50268;BME280;36153;50.960;6.220;2022-12-24T02:15:10;99894.72;;;13.42;63.75
50268;BME280;36153;50.960;6.220;2022-12-24T02:18:22;99891.09;;;13.56;63.49
50268;BME280;36153;50.960;6.220;2022-12-24T02:21:46;99896.25;;;13.62;63.55
50268;BME280;36153;50.960;6.220;2022-12-24T02:25:13;99898.03;;;13.60;63.49
50268;BME280;36153;50.960;6.220;2022-12-24T02:31:49;99899.91;;;13.45;64.23
50268;BME280;36153;50.960;6.220;2022-12-24T02:35:04;99906.78;;;13.56;64.04
50268;BME280;36153;50.960;6.220;2022-12-24T02:38:14;99915.56;;;13.52;63.90
50268;BME280;36153;50.960;6.220;2022-12-24T02:41:20;99919.13;;;13.44;64.97
50268;BME280;36153;50.960;6.220;2022-12-24T02:44:25;99925.97;;;13.55;64.75
50268;BME280;36153;50.960;6.220;2022-12-24T02:47:26;99941.00;;;13.28;66.57
50268;BME280;36153;50.960;6.220;2022-12-24T02:50:27;99930.53;;;13.29;67.03
50268;BME280;36153;50.960;6.220;2022-12-24T02:53:28;99943.63;;;13.25;67.17
50268;BME280;36153;50.960;6.220;2022-12-24T03:00:05;99939.38;;;13.13;67.85
50268;BME280;36153;50.960;6.220;2022-12-24T03:06:16;99937.59;;;13.20;67.02
50268;BME280;36153;50.960;6.220;2022-12-24T03:12:41;99953.22;;;13.26;66.51
50268;BME280;36153;50.960;6.220;2022-12-24T03:15:45;99943.63;;;13.25;66.58
50268;BME280;36153;50.960;6.220;2022-12-24T03:18:48;99943.69;;;13.19;66.06
50268;BME280;36153;50.960;6.220;2022-12-24T03:21:50;99944.53;;;13.22;65.12
50268;BME280;36153;50.960;6.220;2022-12-24T03:24:51;99935.00;;;13.17;65.07
50268;BME280;36153;50.960;6.220;2022-12-24T03:27:51;99939.38;;;13.14;65.19
50268;BME280;36153;50.960;6.220;2022-12-24T03:30:53;99939.47;;;13.01;65.82
50268;BME280;36153;50.960;6.220;2022-12-24T03:33:53;99951.66;;;13.02;65.33
50268;BME280;36153;50.960;6.220;2022-12-24T03:36:54;99952.50;;;13.08;65.37
50268;BME280;36153;50.960;6.220;2022-12-24T03:39:54;99960.47;;;12.88;66.25
50268;BME280;36153;50.960;6.220;2022-12-24T03:42:54;99964.75;;;13.00;66.08
50268;BME280;36153;50.960;6.220;2022-12-24T03:45:55;99967.50;;;12.77;67.19
50268;BME280;36153;50.960;6.220;2022-12-24T03:48:56;99963.09;;;12.84;67.40
50268;BME280;36153;50.960;6.220;2022-12-24T03:51:56;99958.81;;;12.72;67.95
50268;BME280;36153;50.960;6.220;2022-12-24T03:54:57;99957.19;;;12.57;68.93
50268;BME280;36153;50.960;6.220;2022-12-24T03:57:57;99969.34;;;12.61;68.93
50268;BME280;36153;50.960;6.220;2022-12-24T04:00:58;99970.22;;;12.60;68.84
50268;BME280;36153;50.960;6.220;2022-12-24T04:03:58;99974.53;;;12.66;68.76
50268;BME280;36153;50.960;6.220;2022-12-24T04:06:59;99975.28;;;12.81;67.73
50268;BME280;36153;50.960;6.220;2022-12-24T04:09:59;99979.72;;;12.75;67.85
50268;BME280;36153;50.960;6.220;2022-12-24T04:13:00;99972.78;;;12.71;67.61
50268;BME280;36153;50.960;6.220;2022-12-24T04:16:03;99966.63;;;12.73;67.32
50268;BME280;36153;50.960;6.220;2022-12-24T04:19:03;99979.72;;;12.69;67.65
50268;BME280;36153;50.960;6.220;2022-12-24T04:22:04;99990.97;;;12.85;66.97
50268;BME280;36153;50.960;6.220;2022-12-24T04:25:05;99979.72;;;12.75;67.16
50268;BME280;36153;50.960;6.220;2022-12-24T04:28:05;99982.28;;;12.81;66.88
50268;BME280;36153;50.960;6.220;2022-12-24T04:31:08;99985.72;;;12.86;66.87
50268;BME280;36153;50.960;6.220;2022-12-24T04:34:09;99997.03;;;12.87;66.92
50268;BME280;36153;50.960;6.220;2022-12-24T04:37:09;99996.13;;;12.94;66.98
50268;BME280;36153;50.960;6.220;2022-12-24T04:40:10;99996.25;;;12.72;67.88
50268;BME280;36153;50.960;6.220;2022-12-24T04:43:10;100000.34;;;13.12;67.00
50268;BME280;36153;50.960;6.220;2022-12-24T04:46:16;100017.00;;;13.00;67.53
50268;BME280;36153;50.960;6.220;2022-12-24T04:49:17;100008.13;;;13.21;67.00
50268;BME280;36153;50.960;6.220;2022-12-24T04:52:17;100018.59;;;13.20;67.30
50268;BME280;36153;50.960;6.220;2022-12-24T04:55:18;100019.50;;;13.17;67.36
50268;BME280;36153;50.960;6.220;2022-12-24T04:58:18;100014.28;;;13.14;67.03
50268;BME280;36153;50.960;6.220;2022-12-24T05:01:22;100024.72;;;13.15;66.98
50268;BME280;36153;50.960;6.220;2022-12-24T05:04:22;100023.94;;;13.00;68.38
50268;BME280;36153;50.960;6.220;2022-12-24T05:07:23;100017.88;;;12.99;67.74
50268;BME280;36153;50.960;6.220;2022-12-24T05:10:23;100029.09;;;13.17;67.23
50268;BME280;36153;50.960;6.220;2022-12-24T05:13:24;100025.56;;;13.24;66.96
50268;BME280;36153;50.960;6.220;2022-12-24T05:16:24;100035.09;;;13.25;67.38
50268;BME280;36153;50.960;6.220;2022-12-24T05:19:25;100016.75;;;13.32;67.01
50268;BME280;36153;50.960;6.220;2022-12-24T05:22:25;100022.00;;;13.31;67.39
50268;BME280;36153;50.960;6.220;2022-12-24T05:25:44;100013.22;;;13.41;66.99
50268;BME280;36153;50.960;6.220;2022-12-24T05:29:04;100030.72;;;13.30;66.44
50268;BME280;36153;50.960;6.220;2022-12-24T05:32:04;100039.47;;;13.26;66.51
50268;BME280;36153;50.960;6.220;2022-12-24T05:35:05;100039.50;;;13.23;66.85
50268;BME280;36153;50.960;6.220;2022-12-24T05:38:05;100044.78;;;13.17;67.17
50268;BME280;36153;50.960;6.220;2022-12-24T05:41:07;100052.50;;;13.32;66.75
50268;BME280;36153;50.960;6.220;2022-12-24T05:44:08;100058.59;;;13.32;66.75
50268;BME280;36153;50.960;6.220;2022-12-24T05:47:08;100055.91;;;13.46;66.35
50268;BME280;36153;50.960;6.220;2022-12-24T05:50:09;100067.25;;;13.44;66.21
50268;BME280;36153;50.960;6.220;2022-12-24T05:53:09;100054.19;;;13.44;66.04
50268;BME280;36153;50.960;6.220;2022-12-24T05:56:12;100058.56;;;13.43;65.92
50268;BME280;36153;50.960;6.220;2022-12-24T05:59:13;100062.06;;;13.41;66.08
50268;BME280;36153;50.960;6.220;2022-12-24T06:02:14;100076.94;;;13.26;66.13
50268;BME280;36153;50.960;6.220;2022-12-24T06:05:14;100083.03;;;13.27;66.14
50268;BME280;36153;50.960;6.220;2022-12-24T06:08:14;100074.28;;;13.40;65.63
50268;BME280;36153;50.960;6.220;2022-12-24T06:11:17;100072.50;;;13.42;65.23
50268;BME280;36153;50.960;6.220;2022-12-24T06:14:17;100076.06;;;13.26;65.29
50268;BME280;36153;50.960;6.220;2022-12-24T06:17:18;100084.78;;;13.28;65.05
50268;BME280;36153;50.960;6.220;2022-12-24T06:20:18;100082.16;;;13.28;65.44
50268;BME280;36153;50.960;6.220;2022-12-24T06:23:19;100088.25;;;13.27;65.01
50268;BME280;36153;50.960;6.220;2022-12-24T06:26:21;100094.38;;;13.21;65.15
50268;BME280;36153;50.960;6.220;2022-12-24T06:29:22;100089.09;;;13.32;64.93
50268;BME280;36153;50.960;6.220;2022-12-24T06:32:22;100087.38;;;13.29;65.19
50268;BME280;36153;50.960;6.220;2022-12-24T06:35:22;100100.41;;;13.40;64.99
50268;BME280;36153;50.960;6.220;2022-12-24T06:38:23;100097.78;;;13.43;64.73
50268;BME280;36153;50.960;6.220;2022-12-24T06:41:23;100098.59;;;13.52;64.90
50268;BME280;36153;50.960;6.220;2022-12-24T06:44:23;100099.50;;;13.47;64.70
50268;BME280;36153;50.960;6.220;2022-12-24T06:47:24;100099.53;;;13.34;64.91
50268;BME280;36153;50.960;6.220;2022-12-24T06:50:24;100109.09;;;13.42;64.60
50268;BME280;36153;50.960;6.220;2022-12-24T06:53:24;100109.09;;;13.42;64.55
50268;BME280;36153;50.960;6.220;2022-12-24T06:56:25;100114.25;;;13.56;64.18
50268;BME280;36153;50.960;6.220;2022-12-24T06:59:25;100120.38;;;13.51;64.30
50268;BME280;36153;50.960;6.220;2022-12-24T07:02:26;100118.56;;;13.62;63.88
50268;BME280;36153;50.960;6.220;2022-12-24T07:05:27;100121.22;;;13.56;63.68
50268;BME280;36153;50.960;6.220;2022-12-24T07:08:27;100124.66;;;13.61;64.01
50268;BME280;36153;50.960;6.220;2022-12-24T07:11:28;100129.03;;;13.60;64.09
50268;BME280;36153;50.960;6.220;2022-12-24T07:14:28;100123.84;;;13.53;64.06
50268;BME280;36153;50.960;6.220;2022-12-24T07:17:28;100117.75;;;13.51;64.57
50268;BME280;36153;50.960;6.220;2022-12-24T07:20:29;100130.81;;;13.54;64.31
50268;BME280;36153;50.960;6.220;2022-12-24T07:23:29;100134.34;;;13.48;64.17
50268;BME280;36153;50.960;6.220;2022-12-24T07:26:30;100135.13;;;13.61;64.01
50268;BME280;36153;50.960;6.220;2022-12-24T07:29:30;100135.94;;;13.68;63.67
50268;BME280;36153;50.960;6.220;2022-12-24T07:32:31;100143.84;;;13.63;63.75
50268;BME280;36153;50.960;6.220;2022-12-24T07:35:32;100148.97;;;13.78;63.45
50268;BME280;36153;50.960;6.220;2022-12-24T07:38:34;100149.81;;;13.83;63.18
50268;BME280;36153;50.960;6.220;2022-12-24T07:41:35;100151.72;;;13.54;64.06
50268;BME280;36153;50.960;6.220;2022-12-24T07:44:38;100156.72;;;13.91;62.53
50268;BME280;36153;50.960;6.220;2022-12-24T07:47:39;100150.59;;;13.92;62.52
50268;BME280;36153;50.960;6.220;2022-12-24T07:50:40;100161.06;;;13.93;62.68
50268;BME280;36153;50.960;6.220;2022-12-24T07:53:42;100169.97;;;13.66;63.46
50268;BME280;36153;50.960;6.220;2022-12-24T07:56:46;100179.47;;;13.81;63.44
50268;BME280;36153;50.960;6.220;2022-12-24T07:59:47;100182.97;;;13.78;63.38
50268;BME280;36153;50.960;6.220;2022-12-24T08:02:47;100190.88;;;13.66;63.85
50268;BME280;36153;50.960;6.220;2022-12-24T08:05:48;100192.69;;;13.55;63.92
50268;BME280;36153;50.960;6.220;2022-12-24T08:08:48;100186.53;;;13.63;64.32
50268;BME280;36153;50.960;6.220;2022-12-24T08:11:49;100184.78;;;13.69;64.02
50268;BME280;36153;50.960;6.220;2022-12-24T08:14:49;100185.69;;;13.58;64.72
50268;BME280;36153;50.960;6.220;2022-12-24T08:17:50;100191.84;;;13.49;65.36
50268;BME280;36153;50.960;6.220;2022-12-24T08:20:50;100198.63;;;13.83;64.41
50268;BME280;36153;50.960;6.220;2022-12-24T08:23:50;100195.19;;;13.75;64.43
50268;BME280;36153;50.960;6.220;2022-12-24T08:26:51;100205.63;;;13.76;64.47
50268;BME280;36153;50.960;6.220;2022-12-24T08:29:51;100217.00;;;13.72;64.28
50268;BME280;36153;50.960;6.220;2022-12-24T08:32:51;100223.94;;;13.82;64.06
50268;BME280;36153;50.960;6.220;2022-12-24T08:35:54;100230.97;;;13.73;63.81
50268;BME280;36153;50.960;6.220;2022-12-24T08:38:55;100228.31;;;13.77;63.63
50268;BME280;36153;50.960;6.220;2022-12-24T08:41:56;100229.06;;;13.98;63.26
50268;BME280;36153;50.960;6.220;2022-12-24T08:44:56;100233.34;;;14.10;62.75
50268;BME280;36153;50.960;6.220;2022-12-24T08:47:58;100234.31;;;13.95;63.38
50268;BME280;36153;50.960;6.220;2022-12-24T08:50:59;100236.84;;;14.07;63.02
50268;BME280;36153;50.960;6.220;2022-12-24T08:54:00;100241.94;;;14.26;62.49
50268;BME280;36153;50.960;6.220;2022-12-24T08:57:01;100243.78;;;14.14;62.52
50268;BME280;36153;50.960;6.220;2022-12-24T09:00:04;100242.06;;;14.09;62.56
50268;BME280;36153;50.960;6.220;2022-12-24T09:03:04;100258.69;;;14.03;63.13
50268;BME280;36153;50.960;6.220;2022-12-24T09:06:05;100259.44;;;14.19;62.43
50268;BME280;36153;50.960;6.220;2022-12-24T09:09:06;100251.56;;;14.24;62.24
50268;BME280;36153;50.960;6.220;2022-12-24T09:12:07;100257.75;;;14.12;62.43
50268;BME280;36153;50.960;6.220;2022-12-24T09:15:09;100262.03;;;14.24;62.21
50268;BME280;36153;50.960;6.220;2022-12-24T09:18:09;100262.94;;;14.20;62.38
50268;BME280;36153;50.960;6.220;2022-12-24T09:21:12;100275.22;;;14.10;62.25
50268;BME280;36153;50.960;6.220;2022-12-24T09:24:16;100286.47;;;14.23;62.26
50268;BME280;36153;50.960;6.220;2022-12-24T09:27:17;100300.56;;;14.05;63.05
50268;BME280;36153;50.960;6.220;2022-12-24T09:30:17;100298.88;;;13.96;63.10
50268;BME280;36153;50.960;6.220;2022-12-24T09:33:17;100298.00;;;13.94;63.07
50268;BME280;36153;50.960;6.220;2022-12-24T09:36:18;100300.47;;;14.17;62.50
50268;BME280;36153;50.960;6.220;2022-12-24T09:39:19;100297.03;;;14.10;62.95
50268;BME280;36153;50.960;6.220;2022-12-24T09:42:45;100314.38;;;14.25;62.96
50268;BME280;36153;50.960;6.220;2022-12-24T09:49:16;100319.75;;;14.02;63.71
50268;BME280;36153;50.960;6.220;2022-12-24T09:52:39;100317.06;;;14.16;62.90
50268;BME280;36153;50.960;6.220;2022-12-24T09:55:50;100329.28;;;14.11;62.93
50268;BME280;36153;50.960;6.220;2022-12-24T09:59:03;100337.97;;;14.17;62.92
50268;BME280;36153;50.960;6.220;2022-12-24T10:02:09;100328.28;;;14.30;62.19
50268;BME280;36153;50.960;6.220;2022-12-24T10:05:14;100335.28;;;14.30;62.38
50268;BME280;36153;50.960;6.220;2022-12-24T10:08:33;100347.44;;;14.39;62.14
50268;BME280;36153;50.960;6.220;2022-12-24T10:15:09;100334.25;;;14.51;61.50
50268;BME280;36153;50.960;6.220;2022-12-24T10:18:26;100348.25;;;14.47;61.31
50268;BME280;36153;50.960;6.220;2022-12-24T10:21:48;100342.09;;;14.56;61.35
50268;BME280;36153;50.960;6.220;2022-12-24T10:28:18;100351.63;;;14.69;61.02
50268;BME280;36153;50.960;6.220;2022-12-24T10:31:38;100347.13;;;14.87;60.80
50268;BME280;36153;50.960;6.220;2022-12-24T10:34:45;100348.84;;;14.88;60.24
50268;BME280;36153;50.960;6.220;2022-12-24T10:37:51;100346.34;;;14.75;60.30
50268;BME280;36153;50.960;6.220;2022-12-24T10:40:54;100338.50;;;14.72;60.68
50268;BME280;36153;50.960;6.220;2022-12-24T10:43:58;100330.72;;;14.64;60.96
50268;BME280;36153;50.960;6.220;2022-12-24T10:46:59;100333.44;;;14.49;61.34
50268;BME280;36153;50.960;6.220;2022-12-24T10:50:03;100326.31;;;14.68;60.92
50268;BME280;36153;50.960;6.220;2022-12-24T10:56:14;100332.50;;;14.56;61.07
50268;BME280;36153;50.960;6.220;2022-12-24T10:59:41;100347.22;;;14.74;61.16
50268;BME280;36153;50.960;6.220;2022-12-24T11:02:42;100344.56;;;14.77;60.99
50268;BME280;36153;50.960;6.220;2022-12-24T11:05:43;100342.63;;;14.99;60.41
50268;BME280;36153;50.960;6.220;2022-12-24T11:08:44;100345.09;;;15.16;59.85
50268;BME280;36153;50.960;6.220;2022-12-24T11:11:44;100347.91;;;14.93;60.62
50268;BME280;36153;50.960;6.220;2022-12-24T11:14:45;100342.69;;;14.92;60.33
50268;BME280;36153;50.960;6.220;2022-12-24T11:18:00;100346.94;;;15.05;59.78
50268;BME280;36153;50.960;6.220;2022-12-24T11:21:04;100335.63;;;15.05;59.72
50268;BME280;36153;50.960;6.220;2022-12-24T11:30:31;100343.63;;;14.84;60.28
50268;BME280;36153;50.960;6.220;2022-12-24T11:33:45;100351.38;;;14.98;60.04
50268;BME280;36153;50.960;6.220;2022-12-24T11:36:46;100352.19;;;15.07;59.72
50268;BME280;36153;50.960;6.220;2022-12-24T11:39:52;100338.25;;;15.03;59.47
50268;BME280;36153;50.960;6.220;2022-12-24T11:42:58;100340.06;;;14.92;59.78
50268;BME280;36153;50.960;6.220;2022-12-24T11:46:11;100350.31;;;15.19;58.85
50268;BME280;36153;50.960;6.220;2022-12-24T11:49:29;100343.28;;;15.23;59.19
50268;BME280;36153;50.960;6.220;2022-12-24T11:52:30;100347.78;;;15.10;59.34
50268;BME280;36153;50.960;6.220;2022-12-24T11:55:40;100337.59;;;14.75;59.98
50268;BME280;36153;50.960;6.220;2022-12-24T11:58:51;100330.53;;;14.84;59.74
50268;BME280;36153;50.960;6.220;2022-12-24T12:01:59;100337.56;;;14.78;59.87
50268;BME280;36153;50.960;6.220;2022-12-24T12:05:12;100337.63;;;14.72;60.20
50268;BME280;36153;50.960;6.220;2022-12-24T12:08:17;100347.22;;;14.74;60.42
50268;BME280;36153;50.960;6.220;2022-12-24T12:11:20;100343.38;;;15.12;59.47
50268;BME280;36153;50.960;6.220;2022-12-24T12:14:29;100354.25;;;15.61;58.42
50268;BME280;36153;50.960;6.220;2022-12-24T12:17:40;100349.66;;;15.78;58.12
50268;BME280;36153;50.960;6.220;2022-12-24T12:20:49;100363.66;;;15.79;57.94
50268;BME280;36153;50.960;6.220;2022-12-24T12:23:52;100354.66;;;16.00;57.51
50268;BME280;36153;50.960;6.220;2022-12-24T12:27:16;100360.44;;;16.25;57.07
50268;BME280;36153;50.960;6.220;2022-12-24T12:30:21;100366.50;;;16.30;56.49
50268;BME280;36153;50.960;6.220;2022-12-24T12:33:29;100369.38;;;16.13;56.45
50268;BME280;36153;50.960;6.220;2022-12-24T12:36:39;100378.69;;;15.66;56.99
50268;BME280;36153;50.960;6.220;2022-12-24T12:39:42;100377.84;;;15.61;57.13
50268;BME280;36153;50.960;6.220;2022-12-24T12:42:52;100382.41;;;15.46;57.35
50268;BME280;36153;50.960;6.220;2022-12-24T12:49:51;100384.09;;;15.50;57.50
50268;BME280;36153;50.960;6.220;2022-12-24T12:56:30;100379.84;;;15.37;57.72
50268;BME280;36153;50.960;6.220;2022-12-24T12:59:36;100371.13;;;15.38;57.00
50268;BME280;36153;50.960;6.220;2022-12-24T13:12:33;100392.94;;;15.40;56.47
50268;BME280;36153;50.960;6.220;2022-12-24T13:19:41;100393.69;;;15.51;55.92
50268;BME280;36153;50.960;6.220;2022-12-24T13:22:59;100393.63;;;15.58;56.56
50268;BME280;36153;50.960;6.220;2022-12-24T13:26:09;100389.53;;;15.30;56.95
50268;BME280;36153;50.960;6.220;2022-12-24T13:35:34;100400.88;;;15.34;56.89
50268;BME280;36153;50.960;6.220;2022-12-24T13:38:47;100400.00;;;15.32;57.12
50268;BME280;36153;50.960;6.220;2022-12-24T13:41:49;100410.59;;;15.23;57.36
50268;BME280;36153;50.960;6.220;2022-12-24T13:48:30;100412.38;;;15.19;57.28
50268;BME280;36153;50.960;6.220;2022-12-24T13:51:32;100415.03;;;15.11;57.76
50268;BME280;36153;50.960;6.220;2022-12-24T13:54:32;100415.97;;;15.06;57.93
50268;BME280;36153;50.960;6.220;2022-12-24T13:57:39;100413.31;;;15.10;58.01
50268;BME280;36153;50.960;6.220;2022-12-24T14:00:53;100418.50;;;15.16;57.92
50268;BME280;36153;50.960;6.220;2022-12-24T14:03:57;100411.56;;;15.11;57.91
50268;BME280;36153;50.960;6.220;2022-12-24T14:07:01;100405.56;;;14.98;58.43
50268;BME280;36153;50.960;6.220;2022-12-24T14:10:03;100402.06;;;14.97;58.56
50268;BME280;36153;50.960;6.220;2022-12-24T14:13:05;100404.78;;;14.87;58.58
50268;BME280;36153;50.960;6.220;2022-12-24T14:16:11;100404.75;;;14.90;58.62
50268;BME280;36153;50.960;6.220;2022-12-24T14:19:15;100403.06;;;14.82;58.73
50268;BME280;36153;50.960;6.220;2022-12-24T14:25:31;100418.59;;;15.04;58.26
50268;BME280;36153;50.960;6.220;2022-12-24T14:28:35;100414.16;;;15.14;58.23
50268;BME280;36153;50.960;6.220;2022-12-24T14:31:49;100421.84;;;15.31;58.08
50268;BME280;36153;50.960;6.220;2022-12-24T14:35:25;100428.00;;;15.30;57.65
50268;BME280;36153;50.960;6.220;2022-12-24T14:38:27;100432.47;;;15.20;57.41
50268;BME280;36153;50.960;6.220;2022-12-24T14:41:38;100436.25;;;14.85;58.56
50268;BME280;36153;50.960;6.220;2022-12-24T14:44:47;100435.44;;;14.75;58.70
50268;BME280;36153;50.960;6.220;2022-12-24T14:48:13;100449.47;;;14.60;59.18
50268;BME280;36153;50.960;6.220;2022-12-24T14:54:44;100448.69;;;14.47;59.21
50268;BME280;36153;50.960;6.220;2022-12-24T14:57:46;100455.75;;;14.28;59.74
50268;BME280;36153;50.960;6.220;2022-12-24T15:00:47;100453.97;;;14.32;59.84
50268;BME280;36153;50.960;6.220;2022-12-24T15:07:09;100464.53;;;14.10;59.99
50268;BME280;36153;50.960;6.220;2022-12-24T15:10:33;100462.78;;;14.12;60.21
50268;BME280;36153;50.960;6.220;2022-12-24T15:13:35;100475.97;;;13.88;60.82
50268;BME280;36153;50.960;6.220;2022-12-24T15:16:57;100471.53;;;14.13;60.19
50268;BME280;36153;50.960;6.220;2022-12-24T15:19:58;100484.63;;;14.05;60.55
50268;BME280;36153;50.960;6.220;2022-12-24T15:23:00;100484.66;;;13.94;59.98
50268;BME280;36153;50.960;6.220;2022-12-24T15:26:10;100493.41;;;13.75;60.31
50268;BME280;36153;50.960;6.220;2022-12-24T15:29:20;100503.91;;;13.65;60.89
50268;BME280;36153;50.960;6.220;2022-12-24T15:32:22;100505.63;;;13.63;61.30
50268;BME280;36153;50.960;6.220;2022-12-24T15:38:43;100503.91;;;13.53;61.60
50268;BME280;36153;50.960;6.220;2022-12-24T15:41:44;100503.91;;;13.64;61.26
50268;BME280;36153;50.960;6.220;2022-12-24T15:45:11;100510.88;;;13.62;61.21
50268;BME280;36153;50.960;6.220;2022-12-24T15:48:17;100504.78;;;13.38;61.36
50268;BME280;36153;50.960;6.220;2022-12-24T15:51:22;100501.28;;;13.22;61.68
50268;BME280;36153;50.960;6.220;2022-12-24T15:54:23;100504.75;;;13.03;61.82
50268;BME280;36153;50.960;6.220;2022-12-24T15:57:33;100518.63;;;12.97;62.38
50268;BME280;36153;50.960;6.220;2022-12-24T16:00:34;100514.28;;;12.87;62.57
50268;BME280;36153;50.960;6.220;2022-12-24T16:03:54;100517.72;;;12.72;63.06
50268;BME280;36153;50.960;6.220;2022-12-24T16:06:59;100510.72;;;12.57;63.31
50268;BME280;36153;50.960;6.220;2022-12-24T16:10:01;100508.03;;;12.38;63.50
50268;BME280;36153;50.960;6.220;2022-12-24T16:13:18;100508.88;;;12.31;63.91
50268;BME280;36153;50.960;6.220;2022-12-24T16:16:28;100512.31;;;12.19;64.38
50268;BME280;36153;50.960;6.220;2022-12-24T16:19:31;100507.97;;;12.24;64.36
50268;BME280;36153;50.960;6.220;2022-12-24T16:22:32;100520.09;;;12.18;64.27
50268;BME280;36153;50.960;6.220;2022-12-24T16:25:34;100512.22;;;12.05;64.09
50268;BME280;36153;50.960;6.220;2022-12-24T16:28:34;100512.19;;;11.99;64.55
50268;BME280;36153;50.960;6.220;2022-12-24T16:31:46;100507.91;;;12.13;64.84
50268;BME280;36153;50.960;6.220;2022-12-24T16:34:49;100511.44;;;12.22;64.65
50268;BME280;36153;50.960;6.220;2022-12-24T16:37:49;100518.34;;;12.13;64.44
50268;BME280;36153;50.960;6.220;2022-12-24T16:40:50;100514.84;;;12.07;64.46
50268;BME280;36153;50.960;6.220;2022-12-24T16:43:51;100515.69;;;12.03;64.52
50268;BME280;36153;50.960;6.220;2022-12-24T16:46:52;100526.16;;;12.13;64.65
50268;BME280;36153;50.960;6.220;2022-12-24T16:49:53;100526.16;;;12.12;64.92
50268;BME280;36153;50.960;6.220;2022-12-24T16:52:53;100536.69;;;12.26;65.02
50268;BME280;36153;50.960;6.220;2022-12-24T16:55:53;100536.69;;;12.27;65.25
50268;BME280;36153;50.960;6.220;2022-12-24T16:58:54;100530.66;;;12.35;64.95
50268;BME280;36153;50.960;6.220;2022-12-24T17:01:54;100530.53;;;12.18;64.93
50268;BME280;36153;50.960;6.220;2022-12-24T17:04:55;100537.50;;;12.12;64.86
50268;BME280;36153;50.960;6.220;2022-12-24T17:07:58;100540.94;;;12.08;64.55
50268;BME280;36153;50.960;6.220;2022-12-24T17:10:59;100530.44;;;12.02;64.81
50268;BME280;36153;50.960;6.220;2022-12-24T17:13:59;100525.22;;;11.99;65.31
50268;BME280;36153;50.960;6.220;2022-12-24T17:17:00;100520.91;;;12.00;65.76
50268;BME280;36153;50.960;6.220;2022-12-24T17:20:00;100518.19;;;11.87;65.60
50268;BME280;36153;50.960;6.220;2022-12-24T17:23:00;100526.06;;;11.95;65.87